createdAt,value
2023-05-24T00:00:13.287Z,12.65
2023-05-24T00:02:44.054Z,13.20
2023-05-24T00:05:11.435Z,12.60
2023-05-24T00:07:38.523Z,12.20
2023-05-24T00:10:06.397Z,11.80
2023-05-24T00:12:34.297Z,12.07
2023-05-24T00:15:01.223Z,12.27
2023-05-24T00:17:31.392Z,12.48
2023-05-24T00:19:58.300Z,12.10
2023-05-24T00:22:25.274Z,11.85
2023-05-24T00:24:52.492Z,10.88
2023-05-24T00:27:19.704Z,11.23
2023-05-24T00:29:46.686Z,9.95
2023-05-24T00:32:13.724Z,9.73
2023-05-24T00:34:40.728Z,10.40
2023-05-24T00:37:07.733Z,9.85
2023-05-24T00:39:34.621Z,10.48
2023-05-24T00:42:02.218Z,9.15
2023-05-24T00:44:29.701Z,9.57
2023-05-24T00:46:56.668Z,9.50
2023-05-24T00:49:24.153Z,9.77
2023-05-24T00:51:52.981Z,9.98
2023-05-24T00:54:20.882Z,9.70
2023-05-24T00:56:49.279Z,9.40
2023-05-24T00:59:16.265Z,9.23
2023-05-24T01:01:46.993Z,9.60
2023-05-24T01:04:14.913Z,9.68
2023-05-24T01:06:59.360Z,9.27
2023-05-24T01:09:46.012Z,9.80
2023-05-24T01:12:22.641Z,9.35
2023-05-24T01:15:05.157Z,9.18
2023-05-24T01:18:07.941Z,10.30
2023-05-24T01:20:38.833Z,9.95
2023-05-24T01:23:15.014Z,8.77
2023-05-24T01:26:29.318Z,9.80
2023-05-24T01:28:56.626Z,8.68
2023-05-24T01:31:24.063Z,8.40
2023-05-24T01:33:51.008Z,8.00
2023-05-24T01:36:20.114Z,8.15
2023-05-24T01:38:48.118Z,7.65
2023-05-24T01:41:31.212Z,7.13
2023-05-24T01:44:23.478Z,7.60
2023-05-24T01:47:02.863Z,7.40
2023-05-24T01:49:37.998Z,6.53
2023-05-24T01:52:11.567Z,6.78
2023-05-24T01:54:42.687Z,7.45
2023-05-24T01:57:11.786Z,7.30
2023-05-24T01:59:43.438Z,6.75
2023-05-24T02:02:12.260Z,6.93
2023-05-24T02:04:40.846Z,6.50
2023-05-24T02:07:07.900Z,6.65
2023-05-24T02:09:34.856Z,6.97
2023-05-24T02:12:02.364Z,6.63
2023-05-24T02:14:29.723Z,6.78
2023-05-24T02:16:59.399Z,6.88
2023-05-24T02:19:27.029Z,6.55
2023-05-24T02:21:54.601Z,6.55
2023-05-24T02:24:23.363Z,6.85
2023-05-24T02:26:50.192Z,6.80
2023-05-24T02:29:17.264Z,6.28
2023-05-24T02:31:44.119Z,6.32
2023-05-24T02:34:10.917Z,6.28
2023-05-24T02:36:37.839Z,6.47
2023-05-24T02:39:05.073Z,6.40
2023-05-24T02:41:32.049Z,6.20
2023-05-24T02:43:58.910Z,5.68
2023-05-24T02:46:25.767Z,6.10
2023-05-24T02:48:52.620Z,5.72
2023-05-24T02:51:19.551Z,6.18
2023-05-24T02:53:47.189Z,5.88
2023-05-24T02:56:14.109Z,5.80
2023-05-24T02:58:41.797Z,6.18
2023-05-24T03:01:08.947Z,5.78
2023-05-24T03:03:36.716Z,6.10
2023-05-24T03:06:08.389Z,6.53
2023-05-24T03:08:37.418Z,5.82
2023-05-24T03:11:05.303Z,6.05
2023-05-24T03:13:32.201Z,6.03
2023-05-24T03:15:59.285Z,5.68
2023-05-24T03:18:26.370Z,6.10
2023-05-24T03:20:54.347Z,6.05
2023-05-24T03:23:21.171Z,5.85
2023-05-24T03:25:48.974Z,6.05
2023-05-24T03:28:16.066Z,5.80
2023-05-24T03:30:44.199Z,5.93
2023-05-24T03:33:11.396Z,5.55
2023-05-24T03:35:38.234Z,5.70
2023-05-24T03:38:05.185Z,5.68
2023-05-24T03:40:34.577Z,5.95
2023-05-24T03:43:07.395Z,6.03
2023-05-24T03:45:48.288Z,6.05
2023-05-24T03:48:15.653Z,5.60
2023-05-24T03:50:42.945Z,5.70
2023-05-24T03:53:09.983Z,6.22
2023-05-24T03:55:38.750Z,6.18
2023-05-24T03:58:07.951Z,5.63
2023-05-24T04:00:36.353Z,5.70
2023-05-24T04:03:03.502Z,5.53
2023-05-24T04:05:30.523Z,5.72
2023-05-24T04:07:57.480Z,4.32
2023-05-24T04:10:24.384Z,4.82
2023-05-24T04:12:51.369Z,5.00
2023-05-24T04:15:18.461Z,4.68
2023-05-24T04:17:46.586Z,4.38
2023-05-24T04:20:13.970Z,4.30
2023-05-24T04:22:41.480Z,4.35
2023-05-24T04:25:10.085Z,4.47
2023-05-24T04:27:37.423Z,4.13
2023-05-24T04:30:05.672Z,4.13
2023-05-24T04:32:32.934Z,3.65
2023-05-24T04:35:02.308Z,3.70
2023-05-24T04:37:31.849Z,4.32
2023-05-24T04:39:58.833Z,3.88
2023-05-24T04:42:27.410Z,3.60
2023-05-24T04:44:54.247Z,3.50
2023-05-24T04:47:24.156Z,4.25
2023-05-24T04:49:51.264Z,4.07
2023-05-24T04:52:18.719Z,3.75
2023-05-24T04:54:47.145Z,3.95
2023-05-24T04:57:14.019Z,3.85
2023-05-24T04:59:40.845Z,3.85
2023-05-24T05:02:08.436Z,3.85
2023-05-24T05:04:35.485Z,3.88
2023-05-24T05:07:03.786Z,3.83
2023-05-24T05:09:30.884Z,3.85
2023-05-24T05:11:58.422Z,4.15
2023-05-24T05:14:26.165Z,4.22
2023-05-24T05:16:53.130Z,3.83
2023-05-24T05:19:20.217Z,3.60
2023-05-24T05:21:47.153Z,3.83
2023-05-24T05:24:17.832Z,3.60
2023-05-24T05:26:45.256Z,3.10
2023-05-24T05:29:12.127Z,3.40
2023-05-24T05:31:39.864Z,3.45
2023-05-24T05:34:10.067Z,3.58
2023-05-24T05:36:41.111Z,3.55
2023-05-24T05:39:11.696Z,4.43
2023-05-24T05:41:40.053Z,3.30
2023-05-24T05:44:07.264Z,3.13
2023-05-24T05:46:34.171Z,2.83
2023-05-24T05:49:01.270Z,3.25
2023-05-24T05:51:28.784Z,2.92
2023-05-24T05:53:55.895Z,3.20
2023-05-24T05:56:22.754Z,3.25
2023-05-24T05:58:49.717Z,3.10
2023-05-24T06:01:17.029Z,3.00
2023-05-24T06:03:44.824Z,3.03
2023-05-24T06:06:11.999Z,2.25
2023-05-24T06:08:40.940Z,2.85
2023-05-24T06:11:07.845Z,2.25
2023-05-24T06:13:34.738Z,2.78
2023-05-24T06:16:01.755Z,2.80
2023-05-24T06:18:30.632Z,2.25
2023-05-24T06:20:57.684Z,2.47
2023-05-24T06:23:24.581Z,2.70
2023-05-24T06:25:51.451Z,2.40
2023-05-24T06:28:20.877Z,1.98
2023-05-24T06:30:48.361Z,2.30
2023-05-24T06:33:16.863Z,2.30
2023-05-24T06:35:43.952Z,2.20
2023-05-24T06:38:10.996Z,1.92
2023-05-24T06:40:38.378Z,2.20
2023-05-24T06:43:06.001Z,2.28
2023-05-24T06:45:33.617Z,1.85
2023-05-24T06:48:00.642Z,2.00
2023-05-24T06:50:27.696Z,1.90
2023-05-24T06:52:54.504Z,2.28
2023-05-24T06:55:21.639Z,1.60
2023-05-24T06:57:48.512Z,1.90
2023-05-24T07:00:15.764Z,1.90
2023-05-24T07:02:43.308Z,1.48
2023-05-24T07:05:13.399Z,2.13
2023-05-24T07:07:41.266Z,2.58
2023-05-24T07:10:09.162Z,1.92
2023-05-24T07:12:40.541Z,1.48
2023-05-24T07:15:08.787Z,1.60
2023-05-24T07:17:35.948Z,1.80
2023-05-24T07:20:03.199Z,1.30
2023-05-24T07:22:32.830Z,1.60
2023-05-24T07:24:59.661Z,1.77
2023-05-24T07:27:26.530Z,1.70
2023-05-24T07:29:53.413Z,1.40
2023-05-24T07:32:20.342Z,1.98
2023-05-24T07:34:47.342Z,1.42
2023-05-24T07:37:14.283Z,2.15
2023-05-24T07:39:41.170Z,2.15
2023-05-24T07:42:08.084Z,2.10
2023-05-24T07:44:35.425Z,2.13
2023-05-24T07:47:03.058Z,1.50
2023-05-24T07:49:30.082Z,1.55
2023-05-24T07:51:59.628Z,1.80
2023-05-24T07:54:27.022Z,1.42
2023-05-24T07:56:57.753Z,1.65
2023-05-24T07:59:24.771Z,1.42
2023-05-24T08:01:52.740Z,1.10
2023-05-24T08:04:21.705Z,1.77
2023-05-24T08:06:48.585Z,1.55
2023-05-24T08:09:15.470Z,1.50
2023-05-24T08:11:42.597Z,1.50
2023-05-24T08:14:09.882Z,1.80
2023-05-24T08:16:36.802Z,1.45
2023-05-24T08:19:03.801Z,1.60
2023-05-24T08:21:32.129Z,1.65
2023-05-24T08:24:00.118Z,1.90
2023-05-24T08:26:27.209Z,1.70
2023-05-24T08:28:54.899Z,1.23
2023-05-24T08:31:22.384Z,1.60
2023-05-24T08:33:51.160Z,1.25
2023-05-24T08:36:18.775Z,1.88
2023-05-24T08:38:46.933Z,2.00
2023-05-24T08:41:13.810Z,1.15
2023-05-24T08:44:38.884Z,2.15
2023-05-24T08:47:52.814Z,1.63
2023-05-24T08:50:20.521Z,1.40
2023-05-24T08:52:47.994Z,1.80
2023-05-24T08:55:15.782Z,1.70
2023-05-24T08:57:44.865Z,1.80
2023-05-24T09:00:13.107Z,2.28
2023-05-24T09:02:42.335Z,1.70
2023-05-24T09:05:12.471Z,1.70
2023-05-24T09:07:40.206Z,1.63
2023-05-24T09:10:09.475Z,1.25
2023-05-24T09:12:39.511Z,1.65
2023-05-24T09:15:08.203Z,1.45
2023-05-24T09:17:36.951Z,1.63
2023-05-24T09:20:09.046Z,1.90
2023-05-24T09:22:40.851Z,1.83
2023-05-24T09:27:37.719Z,2.13
2023-05-24T09:30:08.887Z,2.50
2023-05-24T09:32:36.054Z,2.00
2023-05-24T09:35:03.167Z,1.65
2023-05-24T09:37:33.006Z,1.60
2023-05-24T09:40:00.370Z,1.80
2023-05-24T09:42:28.940Z,1.92
2023-05-24T09:45:08.972Z,2.13
2023-05-24T09:47:37.739Z,1.80
2023-05-24T09:50:07.088Z,2.20
2023-05-24T09:52:39.177Z,5.40
2023-05-24T09:55:16.737Z,2.08
2023-05-24T09:58:04.388Z,2.08
2023-05-24T10:00:40.256Z,1.65
2023-05-24T10:03:11.181Z,2.08
2023-05-24T10:05:44.742Z,2.10
2023-05-24T10:08:14.605Z,2.38
2023-05-24T10:10:44.121Z,2.30
2023-05-24T10:13:12.859Z,2.35
2023-05-24T10:15:39.924Z,1.90
2023-05-24T10:18:10.671Z,2.13
2023-05-24T10:20:41.656Z,2.40
2023-05-24T10:23:10.949Z,2.40
2023-05-24T10:25:42.047Z,2.40
2023-05-24T10:28:13.493Z,2.45
2023-05-24T10:31:03.384Z,1.95
2023-05-24T10:33:32.520Z,2.22
2023-05-24T10:35:59.870Z,2.30
2023-05-24T10:38:26.891Z,2.35
2023-05-24T10:40:54.060Z,2.90
2023-05-24T10:43:22.783Z,2.05
2023-05-24T10:45:51.267Z,2.03
2023-05-24T10:48:24.337Z,2.42
2023-05-24T10:50:51.251Z,2.25
2023-05-24T10:53:20.279Z,2.22
2023-05-24T10:55:53.220Z,2.22
2023-05-24T10:58:20.966Z,2.47
2023-05-24T11:00:51.419Z,2.22
2023-05-24T11:03:24.620Z,2.63
2023-05-24T11:05:54.663Z,2.05
2023-05-24T11:08:31.945Z,2.13
2023-05-24T11:11:24.611Z,2.60
2023-05-24T11:13:59.707Z,2.45
2023-05-24T11:16:40.188Z,2.95
2023-05-24T11:19:30.748Z,2.88
2023-05-24T11:21:59.172Z,2.90
2023-05-24T11:24:27.648Z,3.22
2023-05-24T11:26:54.986Z,3.38
2023-05-24T11:29:23.147Z,3.17
2023-05-24T11:32:08.015Z,2.80
2023-05-24T11:34:35.195Z,3.08
2023-05-24T11:37:03.449Z,3.10
2023-05-24T11:39:31.946Z,2.92
2023-05-24T11:41:59.551Z,3.13
2023-05-24T11:44:28.059Z,2.75
2023-05-24T11:46:59.551Z,2.80
2023-05-24T11:49:26.929Z,2.92
2023-05-24T11:51:58.105Z,2.88
2023-05-24T11:54:26.197Z,3.20
2023-05-24T11:56:54.401Z,3.22
2023-05-24T11:59:26.610Z,2.70
2023-05-24T12:02:06.666Z,2.60
2023-05-24T12:04:34.951Z,2.78
2023-05-24T12:07:03.162Z,2.90
2023-05-24T12:09:30.702Z,3.15
2023-05-24T12:11:58.833Z,2.50
2023-05-24T12:14:31.274Z,2.80
2023-05-24T12:16:59.168Z,2.80
2023-05-24T12:19:33.658Z,2.45
2023-05-24T12:22:07.196Z,2.70
2023-05-24T12:24:35.547Z,3.20
2023-05-24T12:27:07.843Z,2.72
2023-05-24T12:29:37.866Z,3.08
2023-05-24T12:32:05.415Z,2.47
2023-05-24T12:34:33.738Z,2.70
2023-05-24T12:37:01.335Z,3.08
2023-05-24T12:39:35.114Z,2.65
2023-05-24T12:42:03.470Z,2.55
2023-05-24T12:44:35.335Z,2.70
2023-05-24T12:47:03.884Z,8.30
2023-05-24T12:49:32.577Z,2.35
2023-05-24T12:52:00.232Z,2.63
2023-05-24T12:54:28.295Z,3.25
2023-05-24T12:56:57.826Z,2.95
2023-05-24T12:59:26.065Z,2.67
2023-05-24T13:01:53.496Z,2.63
2023-05-24T13:04:24.407Z,2.42
2023-05-24T13:06:52.904Z,3.30
2023-05-24T13:09:22.663Z,3.30
2023-05-24T13:11:50.853Z,2.75
2023-05-24T13:14:19.210Z,2.97
2023-05-24T13:16:46.375Z,2.67
2023-05-24T13:19:13.837Z,2.92
2023-05-24T13:21:41.012Z,3.33
2023-05-24T13:24:08.808Z,3.17
2023-05-24T13:26:39.201Z,3.10
2023-05-24T13:31:41.371Z,2.80
2023-05-24T13:34:09.485Z,2.83
2023-05-24T13:36:38.253Z,2.97
2023-05-24T13:41:41.662Z,3.28
2023-05-24T13:44:10.320Z,3.03
2023-05-24T13:46:38.669Z,3.33
2023-05-24T13:49:06.786Z,2.55
2023-05-24T13:51:34.482Z,2.22
2023-05-24T13:54:05.022Z,2.83
2023-05-24T13:56:34.347Z,2.20
2023-05-24T13:59:02.828Z,2.63
2023-05-24T14:01:32.750Z,2.90
2023-05-24T14:04:00.951Z,2.22
2023-05-24T14:06:29.061Z,2.80
2023-05-24T14:08:57.789Z,2.33
2023-05-24T14:11:26.362Z,2.58
2023-05-24T14:16:24.878Z,2.78
2023-05-24T14:18:51.990Z,3.00
2023-05-24T14:21:21.743Z,2.70
2023-05-24T14:23:49.636Z,2.70
2023-05-24T14:26:17.957Z,3.13
2023-05-24T14:28:44.905Z,3.75
2023-05-24T14:31:11.828Z,2.60
2023-05-24T14:33:40.259Z,3.13
2023-05-24T14:36:09.224Z,2.30
2023-05-24T14:38:36.639Z,1.92
2023-05-24T14:41:03.745Z,2.70
2023-05-24T14:43:32.244Z,2.70
2023-05-24T14:46:00.669Z,3.30
2023-05-24T14:48:28.361Z,2.95
2023-05-24T14:50:55.778Z,2.97
2023-05-24T14:53:26.037Z,2.78
2023-05-24T14:55:55.129Z,2.40
2023-05-24T14:58:22.775Z,2.40
2023-05-24T15:00:50.143Z,2.60
2023-05-24T15:03:17.366Z,2.63
2023-05-24T15:05:44.504Z,2.47
2023-05-24T15:08:13.217Z,2.47
2023-05-24T15:10:40.741Z,2.83
2023-05-24T15:13:08.225Z,2.60
2023-05-24T15:15:35.024Z,3.13
2023-05-24T15:18:01.998Z,2.95
2023-05-24T15:20:29.012Z,2.80
2023-05-24T15:22:56.122Z,2.50
2023-05-24T15:25:23.056Z,1.85
2023-05-24T15:27:50.025Z,2.10
2023-05-24T15:30:26.943Z,2.45
2023-05-24T15:32:55.942Z,2.40
2023-05-24T15:35:23.130Z,2.45
2023-05-24T15:37:50.408Z,2.42
2023-05-24T15:40:18.808Z,2.50
2023-05-24T15:42:47.384Z,3.03
2023-05-24T15:45:14.257Z,2.60
2023-05-24T15:47:41.078Z,2.78
2023-05-24T15:50:35.364Z,2.63
2023-05-24T15:53:12.168Z,2.53
2023-05-24T15:55:39.119Z,2.72
2023-05-24T15:58:06.012Z,2.58
2023-05-24T16:00:33.087Z,2.50
2023-05-24T16:03:00.337Z,2.90
2023-05-24T16:05:28.384Z,2.85
2023-05-24T16:07:55.529Z,2.42
2023-05-24T16:10:22.376Z,2.60
2023-05-24T16:12:55.585Z,2.53
2023-05-24T16:15:22.496Z,2.90
2023-05-24T16:17:49.351Z,2.80
2023-05-24T16:20:16.318Z,3.38
2023-05-24T16:22:51.366Z,3.03
2023-05-24T16:25:18.411Z,3.00
2023-05-24T16:27:45.263Z,2.60
2023-05-24T16:30:12.459Z,3.20
2023-05-24T16:33:08.377Z,2.80
2023-05-24T16:35:37.432Z,2.92
2023-05-24T16:38:04.775Z,2.65
2023-05-24T16:40:31.692Z,3.17
2023-05-24T16:42:58.516Z,3.40
2023-05-24T16:45:25.512Z,3.28
2023-05-24T16:47:52.651Z,3.20
2023-05-24T16:50:19.606Z,2.70
2023-05-24T16:52:46.471Z,3.78
2023-05-24T16:55:14.891Z,3.50
2023-05-24T16:57:42.136Z,3.40
2023-05-24T17:00:10.029Z,3.75
2023-05-24T17:02:37.445Z,3.25
2023-05-24T17:05:04.440Z,3.60
2023-05-24T17:07:31.991Z,3.25
2023-05-24T17:09:59.095Z,3.25
2023-05-24T17:12:26.084Z,3.20
2023-05-24T17:14:52.943Z,3.40
2023-05-24T17:17:19.924Z,3.08
2023-05-24T17:19:46.982Z,3.55
2023-05-24T17:22:14.318Z,3.20
2023-05-24T17:24:41.565Z,7.90
2023-05-24T17:27:08.535Z,4.80
2023-05-24T17:29:37.621Z,3.88
2023-05-24T17:32:05.882Z,3.47
2023-05-24T17:34:32.885Z,4.35
2023-05-24T17:37:00.136Z,4.10
2023-05-24T17:39:27.057Z,3.85
2023-05-24T17:41:53.862Z,3.90
2023-05-24T17:44:21.397Z,3.63
2023-05-24T17:46:48.415Z,4.22
2023-05-24T17:49:18.507Z,3.80
2023-05-24T17:51:46.922Z,3.60
2023-05-24T17:54:14.871Z,3.70
2023-05-24T17:56:41.805Z,3.80
2023-05-24T17:59:10.035Z,3.75
2023-05-24T18:01:36.991Z,4.28
2023-05-24T18:04:05.153Z,3.80
2023-05-24T18:06:34.041Z,3.58
2023-05-24T18:09:03.904Z,4.07
2023-05-24T18:11:31.083Z,3.70
2023-05-24T18:14:00.449Z,3.70
2023-05-24T18:16:27.644Z,3.92
2023-05-24T18:18:54.926Z,3.85
2023-05-24T18:21:22.046Z,4.05
2023-05-24T18:23:49.325Z,3.78
2023-05-24T18:26:16.205Z,3.75
2023-05-24T18:28:43.996Z,3.90
2023-05-24T18:31:10.981Z,3.85
2023-05-24T18:33:38.451Z,3.78
2023-05-24T18:36:05.883Z,3.72
2023-05-24T18:38:36.675Z,3.78
2023-05-24T18:41:09.376Z,4.13
2023-05-24T18:43:36.507Z,3.85
2023-05-24T18:46:03.366Z,3.90
2023-05-24T18:48:30.197Z,4.20
2023-05-24T18:50:57.192Z,4.03
2023-05-24T18:53:25.728Z,3.67
2023-05-24T18:55:52.566Z,4.03
2023-05-24T18:58:19.453Z,4.05
2023-05-24T19:00:46.490Z,4.07
2023-05-24T19:03:13.515Z,4.32
2023-05-24T19:05:43.555Z,4.57
2023-05-24T19:08:11.157Z,4.90
2023-05-24T19:10:37.992Z,4.78
2023-05-24T19:13:05.997Z,4.72
2023-05-24T19:15:34.750Z,4.57
2023-05-24T19:18:01.825Z,4.63
2023-05-24T19:20:29.997Z,4.82
2023-05-24T19:22:56.820Z,4.55
2023-05-24T19:25:23.663Z,4.82
2023-05-24T19:27:59.178Z,13.52
2023-05-24T19:30:27.596Z,5.00
2023-05-24T19:32:54.785Z,5.00
2023-05-24T19:35:21.725Z,5.05
2023-05-24T19:37:48.588Z,4.50
2023-05-24T19:40:15.654Z,4.35
2023-05-24T19:42:42.469Z,4.80
2023-05-24T19:45:09.787Z,4.60
2023-05-24T19:47:36.775Z,4.38
2023-05-24T19:50:03.781Z,5.07
2023-05-24T19:52:30.810Z,4.63
2023-05-24T19:54:57.721Z,4.57
2023-05-24T19:57:24.587Z,4.90
2023-05-24T19:59:51.743Z,4.63
2023-05-24T20:02:18.590Z,4.43
2023-05-24T20:04:45.391Z,4.90
2023-05-24T20:07:12.383Z,3.90
2023-05-24T20:09:39.501Z,4.80
2023-05-24T20:12:06.544Z,4.38
2023-05-24T20:14:33.954Z,4.82
2023-05-24T20:17:01.436Z,4.30
2023-05-24T20:19:28.747Z,5.45
2023-05-24T20:21:55.685Z,5.10
2023-05-24T20:24:24.977Z,5.00
2023-05-24T20:26:52.065Z,4.97
2023-05-24T20:29:18.945Z,4.90
2023-05-24T20:31:47.165Z,4.40
2023-05-24T20:34:14.220Z,4.47
2023-05-24T20:36:43.574Z,5.22
2023-05-24T20:39:10.863Z,5.05
2023-05-24T20:41:37.708Z,5.50
2023-05-24T20:44:04.622Z,5.68
2023-05-24T20:46:31.812Z,4.65
2023-05-24T20:48:58.929Z,5.30
2023-05-24T20:51:26.000Z,5.47
2023-05-24T20:53:53.392Z,5.72
2023-05-24T20:56:21.428Z,6.10
2023-05-24T20:58:52.751Z,5.90
2023-05-24T21:01:20.861Z,5.97
2023-05-24T21:03:47.885Z,6.10
2023-05-24T21:06:15.041Z,6.25
2023-05-24T21:08:43.072Z,7.00
2023-05-24T21:11:11.236Z,6.25
2023-05-24T21:13:38.248Z,6.95
2023-05-24T21:16:05.558Z,7.22
2023-05-24T21:18:33.516Z,7.22
2023-05-24T21:21:01.006Z,7.75
2023-05-24T21:23:27.937Z,7.35
2023-05-24T21:25:54.899Z,7.32
2023-05-24T21:28:21.956Z,6.95
2023-05-24T21:30:48.822Z,7.53
2023-05-24T21:33:16.151Z,6.78
2023-05-24T21:35:43.219Z,7.22
2023-05-24T21:38:10.259Z,7.40
2023-05-24T21:40:37.167Z,7.63
2023-05-24T21:43:05.348Z,7.68
2023-05-24T21:45:34.699Z,7.63
2023-05-24T21:48:01.608Z,8.30
2023-05-24T21:50:29.108Z,8.00
2023-05-24T21:52:55.940Z,8.05
2023-05-24T21:55:22.779Z,8.07
2023-05-24T21:57:49.717Z,8.48
2023-05-24T22:00:17.188Z,8.95
2023-05-24T22:03:00.670Z,8.70
2023-05-24T22:05:28.081Z,9.10
2023-05-24T22:07:55.261Z,8.75
2023-05-24T22:10:22.128Z,9.45
2023-05-24T22:12:49.140Z,10.45
2023-05-24T22:15:16.256Z,9.48
2023-05-24T22:17:44.581Z,9.60
2023-05-24T22:20:12.090Z,10.80
2023-05-24T22:22:48.510Z,9.77
2023-05-24T22:25:19.468Z,9.98
2023-05-24T22:27:51.357Z,10.05
2023-05-24T22:30:23.933Z,10.85
2023-05-24T22:32:51.324Z,11.32
2023-05-24T22:35:18.284Z,11.20
2023-05-24T22:37:45.156Z,11.65
2023-05-24T22:40:12.493Z,10.70
2023-05-24T22:42:39.343Z,10.95
2023-05-24T22:45:06.877Z,10.80
2023-05-24T22:47:33.993Z,11.23
2023-05-24T22:50:02.293Z,11.63
2023-05-24T22:52:33.927Z,10.45
2023-05-24T22:55:04.234Z,11.73
2023-05-24T22:57:32.992Z,10.95
2023-05-24T22:59:59.804Z,11.85
2023-05-24T23:02:29.203Z,11.95
2023-05-24T23:04:56.350Z,11.35
2023-05-24T23:07:23.507Z,11.68
2023-05-24T23:09:50.299Z,10.57
2023-05-24T23:12:20.343Z,12.18
2023-05-24T23:14:47.212Z,11.43
2023-05-24T23:17:15.161Z,11.65
2023-05-24T23:19:44.914Z,11.20
2023-05-24T23:22:14.101Z,12.20
2023-05-24T23:24:42.678Z,12.95
2023-05-24T23:27:10.045Z,12.85
2023-05-24T23:29:39.084Z,12.60
2023-05-24T23:32:08.046Z,12.63
2023-05-24T23:34:35.345Z,12.95
2023-05-24T23:37:03.194Z,13.13
2023-05-24T23:39:30.239Z,13.00
2023-05-24T23:41:57.339Z,13.80
2023-05-24T23:44:24.165Z,14.07
2023-05-24T23:46:52.872Z,13.52
2023-05-24T23:49:20.218Z,14.30
2023-05-24T23:51:47.240Z,14.00
2023-05-24T23:54:19.066Z,13.90
2023-05-24T23:56:46.345Z,12.80
2023-05-24T23:59:13.140Z,14.07
